Shoreline, Washington
Current Conditions -  °F | °C
As of 7:53 PM on Wednesday 28 Jan 2015 (Local Time) from KPAE Reporting Station
Clear Clear  
Wind Chill: 43°   Ceiling: Unl
Heat Index: 45°   Visibility: 10mi
Dew Point: 40°   Wind: 5mph
Humidity: 82%   Direction: 30°NNE
Pressure: 30.37"   Gusts: NA
Location:  47.7583°N, 122.295°W
Report Text: KPAE 290353Z 03004KT 10SM CLR 07/04 A3037 RMK AO2 SLP286 T00720044
Loading
Personal Weather Stations






























Interactive Weather Map New forecast layout! Learn more

10-Day Weather Forecast

Advertisements
Track Severe Weather on mobile